sensor_id;sensor_type;location;lat;lon;timestamp;temperature;humidity
53954;HTU21D;39862;54.856;26.318;2022-12-13T01:19:20;0.4;65.9
53954;HTU21D;39862;54.856;26.318;2022-12-13T01:24:20;0.3;68.2
53954;HTU21D;39862;54.856;26.318;2022-12-13T01:29:30;0.3;68.3
53954;HTU21D;39862;54.856;26.318;2022-12-13T01:34:42;0.3;68.4
53954;HTU21D;39862;54.856;26.318;2022-12-13T01:39:40;0.3;68.4
53954;HTU21D;39862;54.856;26.318;2022-12-13T01:44:56;0.4;68.4
53954;HTU21D;39862;54.856;26.318;2022-12-13T01:49:30;0.4;68.2
53954;HTU21D;39862;54.856;26.318;2022-12-13T01:54:22;0.4;68.2
53954;HTU21D;39862;54.856;26.318;2022-12-13T01:59:20;0.5;68.1
53954;HTU21D;39862;54.856;26.318;2022-12-13T02:04:29;0.5;68
53954;HTU21D;39862;54.856;26.318;2022-12-13T02:09:30;0.5;67.9
53954;HTU21D;39862;54.856;26.318;2022-12-13T02:14:20;0.6;67.8
53954;HTU21D;39862;54.856;26.318;2022-12-13T02:24:48;0.5;67.5
53954;HTU21D;39862;54.856;26.318;2022-12-13T02:29:54;0.5;67.6
53954;HTU21D;39862;54.856;26.318;2022-12-13T02:34:21;0.5;67.7
53954;HTU21D;39862;54.856;26.318;2022-12-13T02:39:21;0.6;67.7
53954;HTU21D;39862;54.856;26.318;2022-12-13T02:44:21;0.6;67.7
53954;HTU21D;39862;54.856;26.318;2022-12-13T02:49:31;0.6;67.7
53954;HTU21D;39862;54.856;26.318;2022-12-13T02:54:21;0.6;67.5
53954;HTU21D;39862;54.856;26.318;2022-12-13T02:59:32;0.6;67.5
53954;HTU21D;39862;54.856;26.318;2022-12-13T03:04:31;0.6;67.5
53954;HTU21D;39862;54.856;26.318;2022-12-13T03:09:25;0.7;67.5
53954;HTU21D;39862;54.856;26.318;2022-12-13T03:14:20;0.7;67.5
53954;HTU21D;39862;54.856;26.318;2022-12-13T03:19:41;0.7;67.5
53954;HTU21D;39862;54.856;26.318;2022-12-13T03:24:31;0.7;67.6
53954;HTU21D;39862;54.856;26.318;2022-12-13T03:29:42;0.7;67.7
53954;HTU21D;39862;54.856;26.318;2022-12-13T03:34:20;0.7;67.7
53954;HTU21D;39862;54.856;26.318;2022-12-13T03:39:38;0.8;67.8
53954;HTU21D;39862;54.856;26.318;2022-12-13T03:44:44;0.8;67.8
53954;HTU21D;39862;54.856;26.318;2022-12-13T03:49:44;0.8;67.9
53954;HTU21D;39862;54.856;26.318;2022-12-13T03:54:38;0.8;68
53954;HTU21D;39862;54.856;26.318;2022-12-13T03:59:20;0.9;68
53954;HTU21D;39862;54.856;26.318;2022-12-13T04:04:29;0.9;68
53954;HTU21D;39862;54.856;26.318;2022-12-13T04:09:38;1;68
53954;HTU21D;39862;54.856;26.318;2022-12-13T04:14:30;1;68
53954;HTU21D;39862;54.856;26.318;2022-12-13T04:19:40;1;68
53954;HTU21D;39862;54.856;26.318;2022-12-13T04:24:32;1.1;68
53954;HTU21D;39862;54.856;26.318;2022-12-13T04:29:42;1.1;68
53954;HTU21D;39862;54.856;26.318;2022-12-13T04:34:44;1.1;68
53954;HTU21D;39862;54.856;26.318;2022-12-13T04:39:30;1;67.8
53954;HTU21D;39862;54.856;26.318;2022-12-13T04:44:21;1;67.9
53954;HTU21D;39862;54.856;26.318;2022-12-13T04:49:33;1;68
53954;HTU21D;39862;54.856;26.318;2022-12-13T04:54:40;0.9;68
53954;HTU21D;39862;54.856;26.318;2022-12-13T04:59:20;0.9;68
53954;HTU21D;39862;54.856;26.318;2022-12-13T05:04:27;0.9;68
53954;HTU21D;39862;54.856;26.318;2022-12-13T05:09:29;0.9;68
53954;HTU21D;39862;54.856;26.318;2022-12-13T05:14:20;0.9;68
53954;HTU21D;39862;54.856;26.318;2022-12-13T05:19:29;0.9;68
53954;HTU21D;39862;54.856;26.318;2022-12-13T05:24:33;0.9;68
53954;HTU21D;39862;54.856;26.318;2022-12-13T05:29:41;0.9;68
53954;HTU21D;39862;54.856;26.318;2022-12-13T05:34:21;0.9;67.9
53954;HTU21D;39862;54.856;26.318;2022-12-13T05:39:21;0.9;67.9
53954;HTU21D;39862;54.856;26.318;2022-12-13T05:44:21;0.9;68
53954;HTU21D;39862;54.856;26.318;2022-12-13T05:49:21;0.9;68
53954;HTU21D;39862;54.856;26.318;2022-12-13T05:54:21;0.8;68.1
53954;HTU21D;39862;54.856;26.318;2022-12-13T05:59:21;0.8;68.2
53954;HTU21D;39862;54.856;26.318;2022-12-13T06:04:41;0.8;68.5
53954;HTU21D;39862;54.856;26.318;2022-12-13T06:09:21;0.8;68.8
53954;HTU21D;39862;54.856;26.318;2022-12-13T06:14:31;0.8;69.1
53954;HTU21D;39862;54.856;26.318;2022-12-13T06:19:41;0.9;69.1
53954;HTU21D;39862;54.856;26.318;2022-12-13T06:24:45;0.9;69.3
53954;HTU21D;39862;54.856;26.318;2022-12-13T06:29:41;0.9;69.3
53954;HTU21D;39862;54.856;26.318;2022-12-13T06:34:21;0.9;69.3
53954;HTU21D;39862;54.856;26.318;2022-12-13T06:39:21;0.9;69.4
53954;HTU21D;39862;54.856;26.318;2022-12-13T06:44:33;0.9;69.5
53954;HTU21D;39862;54.856;26.318;2022-12-13T06:49:29;0.9;69.5
53954;HTU21D;39862;54.856;26.318;2022-12-13T06:54:31;0.9;69.5
53954;HTU21D;39862;54.856;26.318;2022-12-13T06:59:21;0.9;69.6
53954;HTU21D;39862;54.856;26.318;2022-12-13T07:04:33;1;69.8
53954;HTU21D;39862;54.856;26.318;2022-12-13T07:09:21;1;69.9
53954;HTU21D;39862;54.856;26.318;2022-12-13T07:14:41;1;69.9
53954;HTU21D;39862;54.856;26.318;2022-12-13T07:19:41;1;69.9
53954;HTU21D;39862;54.856;26.318;2022-12-13T07:24:21;1.1;69.8
53954;HTU21D;39862;54.856;26.318;2022-12-13T07:29:31;1.1;69.9
53954;HTU21D;39862;54.856;26.318;2022-12-13T07:34:21;1.1;69.9
53954;HTU21D;39862;54.856;26.318;2022-12-13T07:39:22;1.1;69.8
53954;HTU21D;39862;54.856;26.318;2022-12-13T07:44:33;1.1;69.8
53954;HTU21D;39862;54.856;26.318;2022-12-13T07:49:21;1.1;69.7
53954;HTU21D;39862;54.856;26.318;2022-12-13T07:54:21;1.1;69.6
53954;HTU21D;39862;54.856;26.318;2022-12-13T07:59:37;1.1;69.7
53954;HTU21D;39862;54.856;26.318;2022-12-13T08:04:21;1.1;69.6
53954;HTU21D;39862;54.856;26.318;2022-12-13T08:09:21;1.1;69.5
53954;HTU21D;39862;54.856;26.318;2022-12-13T08:14:21;1.1;69.5
53954;HTU21D;39862;54.856;26.318;2022-12-13T08:19:21;1.1;69.4
53954;HTU21D;39862;54.856;26.318;2022-12-13T08:24:31;1.2;69.4
53954;HTU21D;39862;54.856;26.318;2022-12-13T08:29:33;1.2;69.3
53954;HTU21D;39862;54.856;26.318;2022-12-13T08:34:21;1.2;69.2
53954;HTU21D;39862;54.856;26.318;2022-12-13T08:39:31;1.2;69.1
53954;HTU21D;39862;54.856;26.318;2022-12-13T08:44:29;1.2;69
53954;HTU21D;39862;54.856;26.318;2022-12-13T08:49:29;1.2;68.9
53954;HTU21D;39862;54.856;26.318;2022-12-13T08:54:21;1.2;68.7
53954;HTU21D;39862;54.856;26.318;2022-12-13T08:59:29;1.1;68.9
53954;HTU21D;39862;54.856;26.318;2022-12-13T09:04:33;1.2;69
53954;HTU21D;39862;54.856;26.318;2022-12-13T09:09:41;1.2;69.1
53954;HTU21D;39862;54.856;26.318;2022-12-13T09:14:21;1.2;69
53954;HTU21D;39862;54.856;26.318;2022-12-13T09:19:33;1.3;68.8
53954;HTU21D;39862;54.856;26.318;2022-12-13T09:24:43;1.3;68.8
53954;HTU21D;39862;54.856;26.318;2022-12-13T09:29:31;1.3;68.7
53954;HTU21D;39862;54.856;26.318;2022-12-13T09:34:45;1.3;68.6
53954;HTU21D;39862;54.856;26.318;2022-12-13T09:39:21;1.3;68.6
53954;HTU21D;39862;54.856;26.318;2022-12-13T09:44:22;1.3;68.6
53954;HTU21D;39862;54.856;26.318;2022-12-13T09:49:23;1.3;68.5
53954;HTU21D;39862;54.856;26.318;2022-12-13T09:54:21;1.3;68.5
53954;HTU21D;39862;54.856;26.318;2022-12-13T09:59:39;1.3;68.5
53954;HTU21D;39862;54.856;26.318;2022-12-13T10:04:21;1.3;68.7
53954;HTU21D;39862;54.856;26.318;2022-12-13T10:09:21;1.4;68.6
53954;HTU21D;39862;54.856;26.318;2022-12-13T10:14:23;1.4;68.5
53954;HTU21D;39862;54.856;26.318;2022-12-13T10:19:33;1.4;68.4
53954;HTU21D;39862;54.856;26.318;2022-12-13T10:24:22;1.4;68.4
53954;HTU21D;39862;54.856;26.318;2022-12-13T10:29:29;1.5;68.3
53954;HTU21D;39862;54.856;26.318;2022-12-13T10:34:22;1.5;68.2
53954;HTU21D;39862;54.856;26.318;2022-12-13T10:39:34;1.5;68.2
53954;HTU21D;39862;54.856;26.318;2022-12-13T10:44:21;1.5;68.1
53954;HTU21D;39862;54.856;26.318;2022-12-13T10:49:21;1.6;68.1
53954;HTU21D;39862;54.856;26.318;2022-12-13T10:54:32;1.6;68
53954;HTU21D;39862;54.856;26.318;2022-12-13T10:59:30;1.6;68
53954;HTU21D;39862;54.856;26.318;2022-12-13T11:04:22;1.6;68
53954;HTU21D;39862;54.856;26.318;2022-12-13T11:09:41;1.6;68
53954;HTU21D;39862;54.856;26.318;2022-12-13T11:14:31;1.6;67.9
53954;HTU21D;39862;54.856;26.318;2022-12-13T11:19:31;1.6;67.9
53954;HTU21D;39862;54.856;26.318;2022-12-13T11:24:32;1.6;67.9
53954;HTU21D;39862;54.856;26.318;2022-12-13T11:30:07;1.7;67.8
53954;HTU21D;39862;54.856;26.318;2022-12-13T11:34:34;1.7;67.7
53954;HTU21D;39862;54.856;26.318;2022-12-13T11:39:24;1.7;67.7
53954;HTU21D;39862;54.856;26.318;2022-12-13T11:44:36;1.7;67.7
53954;HTU21D;39862;54.856;26.318;2022-12-13T11:49:31;1.7;67.7
53954;HTU21D;39862;54.856;26.318;2022-12-13T11:54:22;1.7;67.7
53954;HTU21D;39862;54.856;26.318;2022-12-13T11:59:23;1.7;67.7
53954;HTU21D;39862;54.856;26.318;2022-12-13T12:04:30;1.7;67.7
53954;HTU21D;39862;54.856;26.318;2022-12-13T12:09:29;1.8;67.6
53954;HTU21D;39862;54.856;26.318;2022-12-13T12:14:21;1.8;67.5
53954;HTU21D;39862;54.856;26.318;2022-12-13T12:19:21;1.8;67.5
53954;HTU21D;39862;54.856;26.318;2022-12-13T12:25:06;1.8;67.5
53954;HTU21D;39862;54.856;26.318;2022-12-13T12:29:39;1.8;67.5
53954;HTU21D;39862;54.856;26.318;2022-12-13T12:34:24;1.8;67.5
53954;HTU21D;39862;54.856;26.318;2022-12-13T12:39:32;1.8;67.6
53954;HTU21D;39862;54.856;26.318;2022-12-13T12:44:24;1.8;67.6
53954;HTU21D;39862;54.856;26.318;2022-12-13T12:49:57;1.8;67.7
53954;HTU21D;39862;54.856;26.318;2022-12-13T12:54:25;1.8;67.7
53954;HTU21D;39862;54.856;26.318;2022-12-13T12:59:32;1.9;67.7
53954;HTU21D;39862;54.856;26.318;2022-12-13T13:04:22;1.9;67.7
53954;HTU21D;39862;54.856;26.318;2022-12-13T13:09:21;1.9;67.7
53954;HTU21D;39862;54.856;26.318;2022-12-13T13:14:33;2;67.6
53954;HTU21D;39862;54.856;26.318;2022-12-13T13:19:38;1.9;67.5
53954;HTU21D;39862;54.856;26.318;2022-12-13T13:24:22;1.9;67.6
53954;HTU21D;39862;54.856;26.318;2022-12-13T13:29:36;1.9;67.6
53954;HTU21D;39862;54.856;26.318;2022-12-13T13:34:34;1.9;67.7
53954;HTU21D;39862;54.856;26.318;2022-12-13T13:39:35;1.8;67.7
53954;HTU21D;39862;54.856;26.318;2022-12-13T13:44:34;1.8;67.8
53954;HTU21D;39862;54.856;26.318;2022-12-13T13:49:53;1.8;67.8
53954;HTU21D;39862;54.856;26.318;2022-12-13T13:54:37;1.7;67.8
53954;HTU21D;39862;54.856;26.318;2022-12-13T13:59:37;1.7;68
53954;HTU21D;39862;54.856;26.318;2022-12-13T14:04:38;1.7;68.1
53954;HTU21D;39862;54.856;26.318;2022-12-13T14:09:49;1.7;68.1
53954;HTU21D;39862;54.856;26.318;2022-12-13T14:14:29;1.7;68.1
53954;HTU21D;39862;54.856;26.318;2022-12-13T14:20:32;1.8;68
53954;HTU21D;39862;54.856;26.318;2022-12-13T14:24:36;1.8;68.1
53954;HTU21D;39862;54.856;26.318;2022-12-13T14:29:31;1.8;68.1
53954;HTU21D;39862;54.856;26.318;2022-12-13T14:34:35;1.8;68
53954;HTU21D;39862;54.856;26.318;2022-12-13T14:39:33;1.8;67.9
53954;HTU21D;39862;54.856;26.318;2022-12-13T14:44:21;1.8;67.9
53954;HTU21D;39862;54.856;26.318;2022-12-13T14:49:34;1.8;67.9
53954;HTU21D;39862;54.856;26.318;2022-12-13T14:54:43;1.8;67.7
53954;HTU21D;39862;54.856;26.318;2022-12-13T14:59:33;1.7;67.7
53954;HTU21D;39862;54.856;26.318;2022-12-13T15:04:41;1.7;67.8
53954;HTU21D;39862;54.856;26.318;2022-12-13T15:09:21;1.7;67.9
53954;HTU21D;39862;54.856;26.318;2022-12-13T15:14:31;1.8;67.9
53954;HTU21D;39862;54.856;26.318;2022-12-13T15:19:22;1.8;67.9
53954;HTU21D;39862;54.856;26.318;2022-12-13T15:24:29;1.8;67.9
53954;HTU21D;39862;54.856;26.318;2022-12-13T15:29:21;1.8;67.8
53954;HTU21D;39862;54.856;26.318;2022-12-13T15:34:28;1.8;67.9
53954;HTU21D;39862;54.856;26.318;2022-12-13T15:39:21;1.8;67.8
53954;HTU21D;39862;54.856;26.318;2022-12-13T15:44:43;1.8;67.8
53954;HTU21D;39862;54.856;26.318;2022-12-13T15:49:49;1.8;67.8
53954;HTU21D;39862;54.856;26.318;2022-12-13T15:54:21;1.8;67.7
53954;HTU21D;39862;54.856;26.318;2022-12-13T15:59:41;1.8;67.8
53954;HTU21D;39862;54.856;26.318;2022-12-13T16:04:21;1.8;67.6
53954;HTU21D;39862;54.856;26.318;2022-12-13T16:09:46;1.8;67.7
53954;HTU21D;39862;54.856;26.318;2022-12-13T16:14:39;1.7;67.7
53954;HTU21D;39862;54.856;26.318;2022-12-13T16:19:21;1.7;67.5
53954;HTU21D;39862;54.856;26.318;2022-12-13T16:24:21;1.7;67.6
53954;HTU21D;39862;54.856;26.318;2022-12-13T16:29:21;1.7;67.6
53954;HTU21D;39862;54.856;26.318;2022-12-13T16:34:21;1.7;67.7
53954;HTU21D;39862;54.856;26.318;2022-12-13T16:39:21;1.7;67.9
53954;HTU21D;39862;54.856;26.318;2022-12-13T16:44:41;1.8;68.8
53954;HTU21D;39862;54.856;26.318;2022-12-13T16:49:33;1.8;68.3
53954;HTU21D;39862;54.856;26.318;2022-12-13T16:54:31;1.8;67.9
53954;HTU21D;39862;54.856;26.318;2022-12-13T16:59:33;1.9;67.8
53954;HTU21D;39862;54.856;26.318;2022-12-13T17:04:22;1.9;67.7
53954;HTU21D;39862;54.856;26.318;2022-12-13T17:09:21;1.9;67.6
53954;HTU21D;39862;54.856;26.318;2022-12-13T17:14:21;1.9;67.5
53954;HTU21D;39862;54.856;26.318;2022-12-13T17:19:21;2;67.5
53954;HTU21D;39862;54.856;26.318;2022-12-13T17:24:29;2;67.5
53954;HTU21D;39862;54.856;26.318;2022-12-13T17:29:41;2;67.4
53954;HTU21D;39862;54.856;26.318;2022-12-13T17:34:45;2;67.3
53954;HTU21D;39862;54.856;26.318;2022-12-13T17:39:33;1.9;67.3
53954;HTU21D;39862;54.856;26.318;2022-12-13T18:09:33;1.9;67.3
53954;HTU21D;39862;54.856;26.318;2022-12-13T18:14:29;1.9;67.3
53954;HTU21D;39862;54.856;26.318;2022-12-13T18:19:21;1.9;67.3
53954;HTU21D;39862;54.856;26.318;2022-12-13T18:24:29;1.9;67.3
53954;HTU21D;39862;54.856;26.318;2022-12-13T18:29:41;1.9;67.3
53954;HTU21D;39862;54.856;26.318;2022-12-13T18:34:21;1.9;67.3
53954;HTU21D;39862;54.856;26.318;2022-12-13T18:39:33;1.9;67.3
53954;HTU21D;39862;54.856;26.318;2022-12-13T18:44:21;1.9;67.3
53954;HTU21D;39862;54.856;26.318;2022-12-13T18:49:21;1.9;67.3
53954;HTU21D;39862;54.856;26.318;2022-12-13T18:54:21;1.9;67.3
53954;HTU21D;39862;54.856;26.318;2022-12-13T18:59:31;1.9;67.3
53954;HTU21D;39862;54.856;26.318;2022-12-13T19:04:55;1.9;67.3
53954;HTU21D;39862;54.856;26.318;2022-12-13T19:09:21;1.9;67.3
53954;HTU21D;39862;54.856;26.318;2022-12-13T19:14:45;1.9;67.3
53954;HTU21D;39862;54.856;26.318;2022-12-13T19:19:32;1.9;67.3
53954;HTU21D;39862;54.856;26.318;2022-12-13T19:24:21;1.9;67.3
53954;HTU21D;39862;54.856;26.318;2022-12-13T19:29:21;1.9;67.3
53954;HTU21D;39862;54.856;26.318;2022-12-13T19:34:21;1.9;67.3
53954;HTU21D;39862;54.856;26.318;2022-12-13T19:39:21;1.9;67.3
53954;HTU21D;39862;54.856;26.318;2022-12-13T19:44:21;1.9;67.3
53954;HTU21D;39862;54.856;26.318;2022-12-13T19:49:43;1.9;67.3
53954;HTU21D;39862;54.856;26.318;2022-12-13T19:54:21;1.9;67.3
53954;HTU21D;39862;54.856;26.318;2022-12-13T19:59:21;1.9;67.3
53954;HTU21D;39862;54.856;26.318;2022-12-13T20:04:33;1.9;67.3
53954;HTU21D;39862;54.856;26.318;2022-12-13T20:09:21;1.9;67.3
53954;HTU21D;39862;54.856;26.318;2022-12-13T20:14:43;1.9;67.3
53954;HTU21D;39862;54.856;26.318;2022-12-13T20:19:43;1.9;67.3
53954;HTU21D;39862;54.856;26.318;2022-12-13T20:24:43;1.9;67.3
53954;HTU21D;39862;54.856;26.318;2022-12-13T20:29:21;1.9;67.3
53954;HTU21D;39862;54.856;26.318;2022-12-13T20:34:33;1.9;67.3
53954;HTU21D;39862;54.856;26.318;2022-12-13T20:39:31;1.9;67.3
53954;HTU21D;39862;54.856;26.318;2022-12-13T20:44:31;1.9;67.3
53954;HTU21D;39862;54.856;26.318;2022-12-13T20:49:21;1.9;67.3
53954;HTU21D;39862;54.856;26.318;2022-12-13T20:54:31;1.9;67.3
53954;HTU21D;39862;54.856;26.318;2022-12-13T20:59:31;1.9;67.3
53954;HTU21D;39862;54.856;26.318;2022-12-13T21:04:21;1.9;67.3
53954;HTU21D;39862;54.856;26.318;2022-12-13T21:09:34;2.3;66.7
53954;HTU21D;39862;54.856;26.318;2022-12-13T21:14:45;2.3;66.7
53954;HTU21D;39862;54.856;26.318;2022-12-13T21:19:22;2.3;66.8
53954;HTU21D;39862;54.856;26.318;2022-12-13T21:24:23;2.3;66.8
53954;HTU21D;39862;54.856;26.318;2022-12-13T21:29:22;2.3;66.8
53954;HTU21D;39862;54.856;26.318;2022-12-13T21:34:22;2.3;66.8
53954;HTU21D;39862;54.856;26.318;2022-12-13T21:39:37;2.3;66.8
53954;HTU21D;39862;54.856;26.318;2022-12-13T21:44:43;2.3;66.8
